createdAt,value
2018-01-25T00:00:49.702Z,3.00
2018-01-25T00:01:50.411Z,3.00
2018-01-25T00:02:51.119Z,3.00
2018-01-25T00:03:51.848Z,3.00
2018-01-25T00:04:52.552Z,3.00
2018-01-25T00:05:53.262Z,2.00
2018-01-25T00:06:53.983Z,4.00
2018-01-25T00:07:54.694Z,4.00
2018-01-25T00:08:55.401Z,3.00
2018-01-25T00:09:56.108Z,2.00
2018-01-25T00:10:56.816Z,2.00
2018-01-25T00:11:57.540Z,2.00
2018-01-25T00:12:58.248Z,2.00
2018-01-25T00:13:58.958Z,2.00
2018-01-25T00:14:59.704Z,2.00
2018-01-25T00:16:00.374Z,2.00
2018-01-25T00:17:01.082Z,2.00
2018-01-25T00:18:01.790Z,3.00
2018-01-25T00:19:02.498Z,3.00
2018-01-25T00:20:03.205Z,2.00
2018-01-25T00:21:03.911Z,2.00
2018-01-25T00:22:04.618Z,2.00
2018-01-25T00:23:05.340Z,2.00
2018-01-25T00:24:06.060Z,2.00
2018-01-25T00:25:06.767Z,2.00
2018-01-25T00:26:07.475Z,2.00
2018-01-25T00:27:08.181Z,3.00
2018-01-25T00:28:08.887Z,2.00
2018-01-25T00:29:09.593Z,2.00
2018-01-25T00:30:10.299Z,2.00
2018-01-25T00:31:11.006Z,2.00
2018-01-25T00:32:11.711Z,1.00
2018-01-25T00:33:12.418Z,2.00
2018-01-25T00:34:13.126Z,2.00
2018-01-25T00:35:13.851Z,2.00
2018-01-25T00:36:14.568Z,1.00
2018-01-25T00:37:15.274Z,1.00
2018-01-25T00:38:15.979Z,2.00
2018-01-25T00:39:16.684Z,1.00
2018-01-25T00:40:17.391Z,1.00
2018-01-25T00:41:18.098Z,1.00
2018-01-25T00:42:18.804Z,1.00
2018-01-25T00:43:19.511Z,2.00
2018-01-25T00:44:20.218Z,2.00
2018-01-25T00:45:20.925Z,1.00
2018-01-25T00:46:21.645Z,2.00
2018-01-25T00:47:22.366Z,1.00
2018-01-25T00:48:23.072Z,1.00
2018-01-25T00:49:23.778Z,1.00
2018-01-25T00:50:24.488Z,2.00
2018-01-25T00:51:25.206Z,2.00
2018-01-25T00:52:25.914Z,2.00
2018-01-25T00:53:26.622Z,2.00
2018-01-25T00:54:27.329Z,2.00
2018-01-25T00:55:28.037Z,2.00
2018-01-25T00:56:28.744Z,1.00
2018-01-25T00:57:29.464Z,1.00
2018-01-25T00:58:30.184Z,1.00
2018-01-25T00:59:30.891Z,1.00
2018-01-25T01:00:31.597Z,1.00
2018-01-25T01:01:32.305Z,2.00
2018-01-25T01:02:33.010Z,1.00
2018-01-25T01:03:33.716Z,1.00
2018-01-25T01:04:34.421Z,2.00
2018-01-25T01:05:35.126Z,1.00
2018-01-25T01:06:35.834Z,1.00
2018-01-25T01:07:36.539Z,2.00
2018-01-25T01:08:37.247Z,1.00
2018-01-25T01:09:37.954Z,2.00
2018-01-25T01:10:38.659Z,1.00
2018-01-25T01:11:39.366Z,2.00
2018-01-25T01:12:40.073Z,2.00
2018-01-25T01:13:40.795Z,2.00
2018-01-25T01:14:41.501Z,2.00
2018-01-25T01:15:42.226Z,2.00
2018-01-25T01:16:42.931Z,1.00
2018-01-25T01:17:43.636Z,2.00
2018-01-25T01:18:44.343Z,1.00
2018-01-25T01:19:45.062Z,2.00
2018-01-25T01:20:45.769Z,1.00
2018-01-25T01:21:46.473Z,2.00
2018-01-25T01:22:47.179Z,2.00
2018-01-25T01:23:47.887Z,2.00
2018-01-25T01:24:48.592Z,2.00
2018-01-25T01:25:49.299Z,2.00
2018-01-25T01:26:50.007Z,2.00
2018-01-25T01:27:50.713Z,1.00
2018-01-25T01:28:51.420Z,2.00
2018-01-25T01:29:52.126Z,2.00
2018-01-25T01:30:52.845Z,2.00
2018-01-25T01:31:53.569Z,2.00
2018-01-25T01:32:54.274Z,2.00
2018-01-25T01:33:54.980Z,1.00
2018-01-25T01:34:55.686Z,2.00
2018-01-25T01:35:56.394Z,2.00
2018-01-25T01:36:57.099Z,2.00
2018-01-25T01:37:57.803Z,2.00
2018-01-25T01:38:58.515Z,2.00
2018-01-25T01:39:59.221Z,2.00
2018-01-25T01:40:59.933Z,2.00
2018-01-25T01:42:00.633Z,2.00
2018-01-25T01:43:01.339Z,2.00
2018-01-25T01:44:02.059Z,2.00
2018-01-25T01:45:02.777Z,2.00
2018-01-25T01:46:03.500Z,2.00
2018-01-25T01:47:04.206Z,2.00
2018-01-25T01:48:04.913Z,2.00
2018-01-25T01:49:05.620Z,3.00
2018-01-25T01:50:06.327Z,2.00
2018-01-25T01:51:07.034Z,2.00
2018-01-25T01:52:07.742Z,2.00
2018-01-25T01:53:08.449Z,2.00
2018-01-25T01:54:09.156Z,2.00
2018-01-25T01:55:09.862Z,2.00
2018-01-25T01:56:10.569Z,2.00
2018-01-25T01:57:11.274Z,2.00
2018-01-25T01:58:11.983Z,3.00
2018-01-25T01:59:12.688Z,2.00
2018-01-25T02:00:13.399Z,2.00
2018-01-25T02:01:14.115Z,3.00
2018-01-25T02:02:14.821Z,2.00
2018-01-25T02:03:15.542Z,2.00
2018-01-25T02:04:16.249Z,2.00
2018-01-25T02:05:16.955Z,4.00
2018-01-25T02:06:17.662Z,2.00
2018-01-25T02:07:18.368Z,3.00
2018-01-25T02:08:19.074Z,3.00
2018-01-25T02:09:19.781Z,3.00
2018-01-25T02:10:20.485Z,3.00
2018-01-25T02:11:21.207Z,3.00
2018-01-25T02:12:21.915Z,3.00
2018-01-25T02:13:22.625Z,3.00
2018-01-25T02:14:23.341Z,3.00
2018-01-25T02:15:24.047Z,2.00
2018-01-25T02:16:24.753Z,4.00
2018-01-25T02:17:25.472Z,3.00
2018-01-25T02:18:26.177Z,3.00
2018-01-25T02:19:26.884Z,3.00
2018-01-25T02:20:27.589Z,3.00
2018-01-25T02:21:28.310Z,3.00
2018-01-25T02:22:29.017Z,2.00
2018-01-25T02:23:29.725Z,3.00
2018-01-25T02:24:30.431Z,3.00
2018-01-25T02:25:31.139Z,4.00
2018-01-25T02:26:31.846Z,3.00
2018-01-25T02:27:32.554Z,4.00
2018-01-25T02:28:33.260Z,4.00
2018-01-25T02:29:33.966Z,4.00
2018-01-25T02:30:34.673Z,3.00
2018-01-25T02:31:35.380Z,3.00
2018-01-25T02:32:36.086Z,2.00
2018-01-25T02:33:36.794Z,4.00
2018-01-25T02:34:37.514Z,3.00
2018-01-25T02:35:38.218Z,3.00
2018-01-25T02:36:38.924Z,3.00
2018-01-25T02:37:39.630Z,3.00
2018-01-25T02:38:40.334Z,3.00
2018-01-25T02:39:41.038Z,3.00
2018-01-25T02:40:41.743Z,3.00
2018-01-25T02:41:42.449Z,4.00
2018-01-25T02:42:43.167Z,4.00
2018-01-25T02:43:43.873Z,4.00
2018-01-25T02:44:44.587Z,3.00
2018-01-25T02:45:45.305Z,3.00
2018-01-25T02:46:46.021Z,3.00
2018-01-25T02:47:46.741Z,3.00
2018-01-25T02:48:47.463Z,3.00
2018-01-25T02:49:48.168Z,4.00
2018-01-25T02:50:48.874Z,3.00
2018-01-25T02:51:49.581Z,4.00
2018-01-25T02:52:50.287Z,3.00
2018-01-25T02:53:50.992Z,3.00
2018-01-25T02:54:51.699Z,5.00
2018-01-25T02:55:52.405Z,4.00
2018-01-25T02:56:53.112Z,4.00
2018-01-25T02:57:53.817Z,3.00
2018-01-25T02:58:54.524Z,4.00
2018-01-25T02:59:55.233Z,5.00
2018-01-25T03:00:55.937Z,4.00
2018-01-25T03:01:56.647Z,4.00
2018-01-25T03:02:57.349Z,3.00
2018-01-25T03:03:58.055Z,3.00
2018-01-25T03:04:58.778Z,3.00
2018-01-25T03:05:59.483Z,3.00
2018-01-25T03:07:00.202Z,3.00
2018-01-25T03:08:00.921Z,3.00
2018-01-25T03:09:01.625Z,4.00
2018-01-25T03:10:02.331Z,6.00
2018-01-25T03:11:03.038Z,4.00
2018-01-25T03:12:03.759Z,4.00
2018-01-25T03:13:04.478Z,4.00
2018-01-25T03:14:05.184Z,4.00
2018-01-25T03:15:05.890Z,4.00
2018-01-25T03:16:06.609Z,5.00
2018-01-25T03:17:07.329Z,4.00
2018-01-25T03:18:08.035Z,4.00
2018-01-25T03:19:08.756Z,5.00
2018-01-25T03:20:09.475Z,4.00
2018-01-25T03:21:10.181Z,5.00
2018-01-25T03:22:10.887Z,5.00
2018-01-25T03:23:11.605Z,5.00
2018-01-25T03:24:12.311Z,5.00
2018-01-25T03:25:13.019Z,5.00
2018-01-25T03:26:13.725Z,4.00
2018-01-25T03:27:14.430Z,6.00
2018-01-25T03:28:15.151Z,5.00
2018-01-25T03:29:15.859Z,6.00
2018-01-25T03:30:16.564Z,6.00
2018-01-25T03:31:17.272Z,5.00
2018-01-25T03:32:17.983Z,7.00
2018-01-25T03:33:18.686Z,6.00
2018-01-25T03:34:19.392Z,4.00
2018-01-25T03:35:20.098Z,4.00
2018-01-25T03:36:20.806Z,6.00
2018-01-25T03:37:21.512Z,5.00
2018-01-25T03:38:22.218Z,6.00
2018-01-25T03:39:22.925Z,4.00
2018-01-25T03:40:23.630Z,6.00
2018-01-25T03:41:24.353Z,5.00
2018-01-25T03:42:25.056Z,6.00
2018-01-25T03:43:25.761Z,5.00
2018-01-25T03:44:26.467Z,5.00
2018-01-25T03:45:27.172Z,7.00
2018-01-25T03:46:27.880Z,8.00
2018-01-25T03:47:28.585Z,4.00
2018-01-25T03:48:29.302Z,5.00
2018-01-25T03:49:30.025Z,5.00
2018-01-25T03:50:30.732Z,6.00
2018-01-25T03:51:31.439Z,6.00
2018-01-25T03:52:32.148Z,6.00
2018-01-25T03:53:32.867Z,6.00
2018-01-25T03:54:33.572Z,5.00
2018-01-25T03:55:34.277Z,6.00
2018-01-25T03:56:34.987Z,8.00
2018-01-25T03:57:35.690Z,8.00
2018-01-25T03:58:36.397Z,7.00
2018-01-25T03:59:37.102Z,7.00
2018-01-25T04:00:37.822Z,7.00
2018-01-25T04:01:38.525Z,7.00
2018-01-25T04:02:39.233Z,7.00
2018-01-25T04:03:39.957Z,7.00
2018-01-25T04:04:40.677Z,8.00
2018-01-25T04:05:41.382Z,6.00
2018-01-25T04:06:42.089Z,7.00
2018-01-25T04:07:42.794Z,6.00
2018-01-25T04:08:43.500Z,8.00
2018-01-25T04:09:44.205Z,7.00
2018-01-25T04:10:44.911Z,8.00
2018-01-25T04:11:45.616Z,8.00
2018-01-25T04:12:46.322Z,8.00
2018-01-25T04:13:47.030Z,7.00
2018-01-25T04:14:47.750Z,8.00
2018-01-25T04:15:48.456Z,7.00
2018-01-25T04:16:49.162Z,9.00
2018-01-25T04:17:49.868Z,6.00
2018-01-25T04:18:50.575Z,7.00
2018-01-25T04:19:51.296Z,8.00
2018-01-25T04:20:52.005Z,8.00
2018-01-25T04:21:52.713Z,9.00
2018-01-25T04:22:53.436Z,7.00
2018-01-25T04:23:54.140Z,6.00
2018-01-25T04:24:54.860Z,7.00
2018-01-25T04:25:55.566Z,8.00
2018-01-25T04:26:56.274Z,8.00
2018-01-25T04:27:56.980Z,8.00
2018-01-25T04:28:57.685Z,8.00
2018-01-25T04:29:58.393Z,8.00
2018-01-25T04:30:59.099Z,7.00
2018-01-25T04:31:59.805Z,6.00
2018-01-25T04:33:00.509Z,8.00
2018-01-25T04:34:01.217Z,10.00
2018-01-25T04:35:01.924Z,7.00
2018-01-25T04:36:02.630Z,7.00
2018-01-25T04:37:03.337Z,7.00
2018-01-25T04:38:04.043Z,8.00
2018-01-25T04:39:04.751Z,8.00
2018-01-25T04:40:05.458Z,8.00
2018-01-25T04:41:06.162Z,7.00
2018-01-25T04:42:06.868Z,8.00
2018-01-25T04:43:07.581Z,9.00
2018-01-25T04:44:08.284Z,8.00
2018-01-25T04:45:08.991Z,9.00
2018-01-25T04:46:09.697Z,8.00
2018-01-25T04:47:10.401Z,6.00
2018-01-25T04:48:11.123Z,8.00
2018-01-25T04:49:11.831Z,10.00
2018-01-25T04:50:12.538Z,8.00
2018-01-25T04:51:13.247Z,9.00
2018-01-25T04:52:13.969Z,9.00
2018-01-25T04:53:14.677Z,11.00
2018-01-25T04:54:15.385Z,7.00
2018-01-25T04:55:16.092Z,8.00
2018-01-25T04:56:16.806Z,8.00
2018-01-25T04:57:17.507Z,11.00
2018-01-25T04:58:18.229Z,8.00
2018-01-25T04:59:18.938Z,10.00
2018-01-25T05:00:19.647Z,10.00
2018-01-25T05:01:20.358Z,11.00
2018-01-25T05:02:21.080Z,10.00
2018-01-25T05:03:21.786Z,10.00
2018-01-25T05:04:22.493Z,8.00
2018-01-25T05:05:23.205Z,10.00
2018-01-25T05:06:23.922Z,10.00
2018-01-25T05:07:24.633Z,12.00
2018-01-25T05:08:25.340Z,9.00
2018-01-25T05:09:26.049Z,7.00
2018-01-25T05:10:26.758Z,10.00
2018-01-25T05:11:27.467Z,10.00
2018-01-25T05:12:28.187Z,10.00
2018-01-25T05:13:28.894Z,9.00
2018-01-25T05:14:29.601Z,10.00
2018-01-25T05:15:30.327Z,13.00
2018-01-25T05:16:31.037Z,12.00
2018-01-25T05:17:31.745Z,13.00
2018-01-25T05:18:32.466Z,10.00
2018-01-25T05:19:33.188Z,14.00
2018-01-25T05:20:33.897Z,11.00
2018-01-25T05:21:34.602Z,12.00
2018-01-25T05:22:35.328Z,13.00
2018-01-25T05:23:36.033Z,11.00
2018-01-25T05:24:36.752Z,11.00
2018-01-25T05:25:37.461Z,10.00
2018-01-25T05:26:38.171Z,11.00
2018-01-25T05:27:38.892Z,11.00
2018-01-25T05:28:39.614Z,11.00
2018-01-25T05:29:40.323Z,11.00
2018-01-25T05:30:41.034Z,13.00
2018-01-25T05:31:41.742Z,11.00
2018-01-25T05:32:42.449Z,12.00
2018-01-25T05:33:43.157Z,12.00
2018-01-25T05:34:43.863Z,11.00
2018-01-25T05:35:44.586Z,13.00
2018-01-25T05:36:45.308Z,13.00
2018-01-25T05:37:46.015Z,10.00
2018-01-25T05:38:46.725Z,13.00
2018-01-25T05:39:47.433Z,13.00
2018-01-25T05:40:48.142Z,12.00
2018-01-25T05:41:48.850Z,15.00
2018-01-25T05:42:49.555Z,13.00
2018-01-25T05:43:50.263Z,11.00
2018-01-25T05:44:50.970Z,13.00
2018-01-25T05:45:51.678Z,13.00
2018-01-25T05:46:52.386Z,13.00
2018-01-25T05:47:53.109Z,13.00
2018-01-25T05:48:53.817Z,13.00
2018-01-25T05:49:54.539Z,10.00
2018-01-25T05:50:55.249Z,11.00
2018-01-25T05:51:55.972Z,11.00
2018-01-25T05:52:56.685Z,11.00
2018-01-25T05:53:57.391Z,11.00
2018-01-25T05:54:58.112Z,14.00
2018-01-25T05:55:58.819Z,13.00
2018-01-25T05:56:59.543Z,13.00
2018-01-25T05:58:00.253Z,12.00
2018-01-25T05:59:00.976Z,12.00
2018-01-25T06:00:01.697Z,9.00
2018-01-25T06:01:02.418Z,12.00
2018-01-25T06:02:03.128Z,11.00
2018-01-25T06:03:03.849Z,13.00
2018-01-25T06:04:04.557Z,13.00
2018-01-25T06:05:05.282Z,14.00
2018-01-25T06:06:05.992Z,11.00
2018-01-25T06:07:06.699Z,13.00
2018-01-25T06:08:07.411Z,12.00
2018-01-25T06:09:08.129Z,13.00
2018-01-25T06:10:08.837Z,13.00
2018-01-25T06:11:09.560Z,11.00
2018-01-25T06:12:10.269Z,12.00
2018-01-25T06:13:10.981Z,13.00
2018-01-25T06:14:11.700Z,15.00
2018-01-25T06:15:12.407Z,15.00
2018-01-25T06:16:13.115Z,13.00
2018-01-25T06:17:13.822Z,12.00
2018-01-25T06:18:14.531Z,10.00
2018-01-25T06:19:15.239Z,14.00
2018-01-25T06:20:15.948Z,14.00
2018-01-25T06:21:16.653Z,14.00
2018-01-25T06:22:17.361Z,14.00
2018-01-25T06:23:18.068Z,12.00
2018-01-25T06:24:18.774Z,14.00
2018-01-25T06:25:19.498Z,15.00
2018-01-25T06:26:20.206Z,14.00
2018-01-25T06:27:20.915Z,13.00
2018-01-25T06:28:21.624Z,15.00
2018-01-25T06:29:22.330Z,15.00
2018-01-25T06:30:23.038Z,14.00
2018-01-25T06:31:23.745Z,14.00
2018-01-25T06:32:24.453Z,13.00
2018-01-25T06:33:25.161Z,14.00
2018-01-25T06:34:25.867Z,13.00
2018-01-25T06:35:26.580Z,14.00
2018-01-25T06:36:27.298Z,13.00
2018-01-25T06:37:28.006Z,13.00
2018-01-25T06:38:28.728Z,14.00
2018-01-25T06:39:29.437Z,13.00
2018-01-25T06:40:30.145Z,12.00
2018-01-25T06:41:30.851Z,15.00
2018-01-25T06:42:31.559Z,14.00
2018-01-25T06:43:32.267Z,10.00
2018-01-25T06:44:32.976Z,14.00
2018-01-25T06:45:33.684Z,14.00
2018-01-25T06:46:34.394Z,12.00
2018-01-25T06:47:35.101Z,15.00
2018-01-25T06:48:35.824Z,12.00
2018-01-25T06:49:36.533Z,13.00
2018-01-25T06:50:37.256Z,10.00
2018-01-25T06:51:37.963Z,14.00
2018-01-25T06:52:38.685Z,14.00
2018-01-25T06:53:39.392Z,12.00
2018-01-25T06:54:40.100Z,12.00
2018-01-25T06:55:40.808Z,14.00
2018-01-25T06:56:41.516Z,11.00
2018-01-25T06:57:42.225Z,11.00
2018-01-25T06:58:42.934Z,12.00
2018-01-25T06:59:43.641Z,15.00
2018-01-25T07:00:44.349Z,9.00
2018-01-25T07:01:45.056Z,11.00
2018-01-25T07:02:45.777Z,14.00
2018-01-25T07:03:46.488Z,12.00
2018-01-25T07:04:47.197Z,14.00
2018-01-25T07:05:47.906Z,13.00
2018-01-25T07:06:48.614Z,12.00
2018-01-25T07:07:49.324Z,12.00
2018-01-25T07:08:50.035Z,13.00
2018-01-25T07:09:50.744Z,14.00
2018-01-25T07:10:51.455Z,10.00
2018-01-25T07:11:52.163Z,14.00
2018-01-25T07:12:52.885Z,12.00
2018-01-25T07:13:53.594Z,13.00
2018-01-25T07:14:54.303Z,12.00
2018-01-25T07:15:55.029Z,13.00
2018-01-25T07:16:55.737Z,11.00
2018-01-25T07:17:56.445Z,14.00
2018-01-25T07:18:57.153Z,11.00
2018-01-25T07:19:57.861Z,10.00
2018-01-25T07:20:58.570Z,13.00
2018-01-25T07:21:59.282Z,12.00
2018-01-25T07:22:59.992Z,14.00
2018-01-25T07:24:00.700Z,12.00
2018-01-25T07:25:01.411Z,14.00
2018-01-25T07:26:02.120Z,11.00
2018-01-25T07:27:02.832Z,9.00
2018-01-25T07:28:03.542Z,10.00
2018-01-25T07:29:04.266Z,14.00
2018-01-25T07:30:04.978Z,12.00
2018-01-25T07:31:05.687Z,9.00
2018-01-25T07:32:06.413Z,11.00
2018-01-25T07:33:07.123Z,10.00
2018-01-25T07:34:07.836Z,12.00
2018-01-25T07:35:08.595Z,11.00
2018-01-25T07:36:09.273Z,12.00
2018-01-25T07:37:10.000Z,11.00
2018-01-25T07:38:10.710Z,11.00
2018-01-25T07:39:11.421Z,14.00
2018-01-25T07:40:12.131Z,13.00
2018-01-25T07:41:12.840Z,12.00
2018-01-25T07:42:13.555Z,12.00
2018-01-25T07:43:14.285Z,11.00
2018-01-25T07:44:14.990Z,11.00
2018-01-25T07:45:15.702Z,14.00
2018-01-25T07:46:16.415Z,14.00
2018-01-25T07:47:17.124Z,11.00
2018-01-25T07:48:17.836Z,11.00
2018-01-25T07:49:18.548Z,13.00
2018-01-25T07:50:19.274Z,12.00
2018-01-25T07:51:20.002Z,14.00
2018-01-25T07:52:20.713Z,12.00
2018-01-25T07:53:21.425Z,11.00
2018-01-25T07:54:22.139Z,12.00
2018-01-25T07:55:22.849Z,11.00
2018-01-25T07:56:23.561Z,12.00
2018-01-25T07:57:24.274Z,10.00
2018-01-25T07:58:24.988Z,12.00
2018-01-25T07:59:25.698Z,11.00
2018-01-25T08:00:26.411Z,10.00
2018-01-25T08:01:27.123Z,13.00
2018-01-25T08:02:27.850Z,14.00
2018-01-25T08:03:28.564Z,11.00
2018-01-25T08:04:29.275Z,13.00
2018-01-25T08:05:29.988Z,10.00
2018-01-25T08:06:30.717Z,9.00
2018-01-25T08:07:31.430Z,11.00
2018-01-25T08:08:32.141Z,10.00
2018-01-25T08:09:32.868Z,9.00
2018-01-25T08:10:33.578Z,10.00
2018-01-25T08:11:34.292Z,10.00
2018-01-25T08:12:35.019Z,10.00
2018-01-25T08:13:35.734Z,10.00
2018-01-25T08:14:36.459Z,9.00
2018-01-25T08:15:37.169Z,11.00
2018-01-25T08:16:37.880Z,9.00
2018-01-25T08:17:38.605Z,11.00
2018-01-25T08:18:39.332Z,10.00
2018-01-25T08:19:40.043Z,9.00
2018-01-25T08:20:40.756Z,10.00
2018-01-25T08:21:41.485Z,10.00
2018-01-25T08:22:42.195Z,9.00
2018-01-25T08:23:42.920Z,11.00
2018-01-25T08:24:43.633Z,11.00
2018-01-25T08:25:44.346Z,11.00
2018-01-25T08:26:45.061Z,11.00
2018-01-25T08:27:45.773Z,10.00
2018-01-25T08:28:46.486Z,10.00
2018-01-25T08:29:47.197Z,9.00
2018-01-25T08:30:47.910Z,9.00
2018-01-25T08:31:48.623Z,11.00
2018-01-25T08:32:49.337Z,11.00
2018-01-25T08:33:50.064Z,9.00
2018-01-25T08:34:50.778Z,10.00
2018-01-25T08:35:51.493Z,9.00
2018-01-25T08:36:52.206Z,10.00
2018-01-25T08:37:52.918Z,8.00
2018-01-25T08:38:53.632Z,9.00
2018-01-25T08:39:54.342Z,9.00
2018-01-25T08:40:55.055Z,11.00
2018-01-25T08:41:55.769Z,9.00
2018-01-25T08:42:56.481Z,7.00
2018-01-25T08:43:57.193Z,9.00
2018-01-25T08:44:57.920Z,9.00
2018-01-25T08:45:58.633Z,12.00
2018-01-25T08:46:59.347Z,11.00
2018-01-25T08:48:00.061Z,10.00
2018-01-25T08:49:00.780Z,10.00
2018-01-25T08:50:01.502Z,9.00
2018-01-25T08:51:02.212Z,9.00
2018-01-25T08:52:02.938Z,9.00
2018-01-25T08:53:03.650Z,10.00
2018-01-25T08:54:04.384Z,9.00
2018-01-25T08:55:05.087Z,8.00
2018-01-25T08:56:05.798Z,8.00
2018-01-25T08:57:06.511Z,5.00
2018-01-25T08:58:07.236Z,8.00
2018-01-25T08:59:07.971Z,10.00
2018-01-25T09:00:08.663Z,8.00
2018-01-25T09:01:09.388Z,8.00
2018-01-25T09:02:10.103Z,11.00
2018-01-25T09:03:10.816Z,8.00
2018-01-25T09:04:11.527Z,7.00
2018-01-25T09:05:12.254Z,8.00
2018-01-25T09:06:12.984Z,9.00
2018-01-25T09:07:13.695Z,7.00
2018-01-25T09:08:14.408Z,7.00
2018-01-25T09:09:15.122Z,9.00
2018-01-25T09:10:15.835Z,7.00
2018-01-25T09:11:16.548Z,9.00
2018-01-25T09:12:17.265Z,6.00
2018-01-25T09:13:17.991Z,10.00
2018-01-25T09:14:18.719Z,8.00
2018-01-25T09:15:19.432Z,9.00
2018-01-25T09:16:20.142Z,5.00
2018-01-25T09:17:20.870Z,10.00
2018-01-25T09:18:21.587Z,9.00
2018-01-25T09:19:22.299Z,9.00
2018-01-25T09:20:23.011Z,8.00
2018-01-25T09:21:23.722Z,8.00
2018-01-25T09:22:24.434Z,9.00
2018-01-25T09:23:25.146Z,9.00
2018-01-25T09:24:25.874Z,7.00
2018-01-25T09:25:26.588Z,7.00
2018-01-25T09:26:27.312Z,8.00
2018-01-25T09:27:28.025Z,9.00
2018-01-25T09:28:28.754Z,7.00
2018-01-25T09:29:29.479Z,8.00
2018-01-25T09:30:30.193Z,7.00
2018-01-25T09:31:30.906Z,8.00
2018-01-25T09:32:31.620Z,8.00
2018-01-25T09:33:32.331Z,8.00
2018-01-25T09:34:33.043Z,8.00
2018-01-25T09:35:33.757Z,6.00
2018-01-25T09:36:34.470Z,7.00
2018-01-25T09:37:35.184Z,9.00
2018-01-25T09:38:35.898Z,7.00
2018-01-25T09:39:36.613Z,9.00
2018-01-25T09:40:37.326Z,8.00
2018-01-25T09:41:38.051Z,7.00
2018-01-25T09:42:38.763Z,7.00
2018-01-25T09:43:39.478Z,8.00
2018-01-25T09:44:40.192Z,8.00
2018-01-25T09:45:40.901Z,7.00
2018-01-25T09:46:41.628Z,6.00
2018-01-25T09:47:42.342Z,8.00
2018-01-25T09:48:43.088Z,11.00
2018-01-25T09:49:43.769Z,7.00
2018-01-25T09:50:44.503Z,9.00
2018-01-25T09:51:45.210Z,8.00
2018-01-25T09:52:45.922Z,8.00
2018-01-25T09:53:46.637Z,8.00
2018-01-25T09:54:47.350Z,9.00
2018-01-25T09:55:48.062Z,8.00
2018-01-25T09:56:48.781Z,7.00
2018-01-25T09:57:49.502Z,7.00
2018-01-25T09:58:50.217Z,8.00
2018-01-25T09:59:50.932Z,7.00
2018-01-25T10:00:51.644Z,9.00
2018-01-25T10:01:52.372Z,8.00
2018-01-25T10:02:53.083Z,8.00
2018-01-25T10:03:53.798Z,8.00
2018-01-25T10:04:54.523Z,8.00
2018-01-25T10:05:55.238Z,9.00
2018-01-25T10:06:55.951Z,8.00
2018-01-25T10:07:56.664Z,8.00
2018-01-25T10:08:57.380Z,7.00
2018-01-25T10:09:58.094Z,7.00
2018-01-25T10:10:58.806Z,9.00
2018-01-25T10:11:59.519Z,9.00
2018-01-25T10:13:00.232Z,5.00
2018-01-25T10:14:00.947Z,10.00
2018-01-25T10:15:01.659Z,9.00
2018-01-25T10:16:02.380Z,6.00
2018-01-25T10:17:03.093Z,8.00
2018-01-25T10:18:03.827Z,10.00
2018-01-25T10:19:04.536Z,8.00
2018-01-25T10:20:05.249Z,6.00
2018-01-25T10:21:05.968Z,8.00
2018-01-25T10:22:06.693Z,11.00
2018-01-25T10:23:07.407Z,9.00
2018-01-25T10:24:08.122Z,8.00
2018-01-25T10:25:08.835Z,9.00
2018-01-25T10:26:09.549Z,9.00
2018-01-25T10:27:10.274Z,9.00
2018-01-25T10:28:10.989Z,10.00
2018-01-25T10:29:11.713Z,8.00
2018-01-25T10:30:12.421Z,9.00
2018-01-25T10:31:13.132Z,10.00
2018-01-25T10:32:13.847Z,10.00
2018-01-25T10:33:14.563Z,8.00
2018-01-25T10:34:15.277Z,9.00
2018-01-25T10:35:15.992Z,11.00
2018-01-25T10:36:16.708Z,9.00
2018-01-25T10:37:17.423Z,10.00
2018-01-25T10:38:18.138Z,9.00
2018-01-25T10:39:18.853Z,11.00
2018-01-25T10:40:19.570Z,8.00
2018-01-25T10:41:20.284Z,8.00
2018-01-25T10:42:21.000Z,7.00
2018-01-25T10:43:21.726Z,8.00
2018-01-25T10:44:22.440Z,9.00
2018-01-25T10:45:23.156Z,9.00
2018-01-25T10:46:23.872Z,9.00
2018-01-25T10:47:24.599Z,9.00
2018-01-25T10:48:25.316Z,9.00
2018-01-25T10:49:26.030Z,9.00
2018-01-25T10:50:26.746Z,8.00
2018-01-25T10:51:27.461Z,9.00
2018-01-25T10:52:28.175Z,9.00
2018-01-25T10:53:28.889Z,9.00
2018-01-25T10:54:29.604Z,10.00
2018-01-25T10:55:30.320Z,8.00
2018-01-25T10:56:31.035Z,10.00
2018-01-25T10:57:31.751Z,15.00
2018-01-25T10:58:32.467Z,13.00
2018-01-25T10:59:33.181Z,8.00
2018-01-25T11:00:33.895Z,8.00
2018-01-25T11:01:34.643Z,10.00
2018-01-25T11:02:35.340Z,9.00
2018-01-25T11:03:36.062Z,9.00
2018-01-25T11:04:36.783Z,9.00
2018-01-25T11:05:37.497Z,8.00
2018-01-25T11:06:38.227Z,10.00
2018-01-25T11:07:38.944Z,10.00
2018-01-25T11:08:39.657Z,8.00
2018-01-25T11:09:40.374Z,10.00
2018-01-25T11:10:41.093Z,8.00
2018-01-25T11:11:41.819Z,8.00
2018-01-25T11:12:42.533Z,8.00
2018-01-25T11:13:43.263Z,8.00
2018-01-25T11:14:43.976Z,7.00
2018-01-25T11:15:44.694Z,8.00
2018-01-25T11:16:45.417Z,9.00
2018-01-25T11:17:46.133Z,9.00
2018-01-25T11:18:46.898Z,11.00
2018-01-25T11:19:47.578Z,8.00
2018-01-25T11:20:48.293Z,5.00
2018-01-25T11:21:49.008Z,8.00
2018-01-25T11:22:49.725Z,7.00
2018-01-25T11:23:50.454Z,11.00
2018-01-25T11:24:51.173Z,10.00
2018-01-25T11:25:51.903Z,8.00
2018-01-25T11:26:52.613Z,8.00
2018-01-25T11:27:53.328Z,7.00
2018-01-25T11:28:54.060Z,9.00
2018-01-25T11:29:54.776Z,8.00
2018-01-25T11:30:55.491Z,7.00
2018-01-25T11:31:56.211Z,7.00
2018-01-25T11:32:56.921Z,7.00
2018-01-25T11:33:57.636Z,7.00
2018-01-25T11:34:58.350Z,8.00
2018-01-25T11:35:59.066Z,8.00
2018-01-25T11:36:59.780Z,7.00
2018-01-25T11:38:00.508Z,7.00
2018-01-25T11:39:01.222Z,8.00
2018-01-25T11:40:01.937Z,8.00
2018-01-25T11:41:02.652Z,7.00
2018-01-25T11:42:03.368Z,9.00
2018-01-25T11:43:04.095Z,8.00
2018-01-25T11:44:04.810Z,7.00
2018-01-25T11:45:05.523Z,6.00
2018-01-25T11:46:06.241Z,6.00
2018-01-25T11:47:06.963Z,6.00
2018-01-25T11:48:07.668Z,9.00
2018-01-25T11:49:08.383Z,9.00
2018-01-25T11:50:09.114Z,8.00
2018-01-25T11:51:09.844Z,7.00
2018-01-25T11:52:10.556Z,8.00
2018-01-25T11:53:11.273Z,10.00
2018-01-25T11:54:12.004Z,8.00
2018-01-25T11:55:12.719Z,8.00
2018-01-25T11:56:13.450Z,7.00
2018-01-25T11:57:14.181Z,8.00
2018-01-25T11:58:14.912Z,8.00
2018-01-25T11:59:15.633Z,8.00
2018-01-25T12:00:16.344Z,7.00
2018-01-25T12:01:17.062Z,8.00
2018-01-25T12:02:17.836Z,8.00
2018-01-25T12:03:18.510Z,6.00
2018-01-25T12:04:19.238Z,6.00
2018-01-25T12:05:19.954Z,7.00
2018-01-25T12:06:20.670Z,8.00
2018-01-25T12:07:21.387Z,7.00
2018-01-25T12:08:22.103Z,7.00
2018-01-25T12:09:22.821Z,6.00
2018-01-25T12:10:23.581Z,7.00
2018-01-25T12:11:24.250Z,6.00
2018-01-25T12:12:24.982Z,7.00
2018-01-25T12:13:25.710Z,7.00
2018-01-25T12:14:26.426Z,6.00
2018-01-25T12:15:27.144Z,7.00
2018-01-25T12:16:27.860Z,7.00
2018-01-25T12:17:28.578Z,6.00
2018-01-25T12:18:29.295Z,8.00
2018-01-25T12:19:30.014Z,6.00
2018-01-25T12:20:30.743Z,6.00
2018-01-25T12:21:31.459Z,5.00
2018-01-25T12:22:32.177Z,7.00
2018-01-25T12:23:32.891Z,5.00
2018-01-25T12:24:33.605Z,6.00
2018-01-25T12:25:34.335Z,5.00
2018-01-25T12:26:35.049Z,6.00
2018-01-25T12:27:35.828Z,6.00
2018-01-25T12:28:36.479Z,8.00
2018-01-25T12:29:37.193Z,7.00
2018-01-25T12:30:37.922Z,7.00
2018-01-25T12:31:38.652Z,7.00
2018-01-25T12:32:39.378Z,7.00
2018-01-25T12:33:40.091Z,6.00
2018-01-25T12:34:40.809Z,6.00
2018-01-25T12:35:41.525Z,8.00
2018-01-25T12:36:42.255Z,5.00
2018-01-25T12:37:42.970Z,6.00
2018-01-25T12:38:43.700Z,6.00
2018-01-25T12:39:44.416Z,6.00
2018-01-25T12:40:45.132Z,7.00
2018-01-25T12:41:45.846Z,5.00
2018-01-25T12:42:46.561Z,8.00
2018-01-25T12:43:47.292Z,6.00
2018-01-25T12:44:48.007Z,6.00
2018-01-25T12:45:48.721Z,7.00
2018-01-25T12:46:49.434Z,6.00
2018-01-25T12:47:50.149Z,6.00
2018-01-25T12:48:50.863Z,7.00
2018-01-25T12:49:51.578Z,7.00
2018-01-25T12:50:52.293Z,5.00
2018-01-25T12:51:53.021Z,5.00
2018-01-25T12:52:53.751Z,6.00
2018-01-25T12:53:54.467Z,6.00
2018-01-25T12:54:55.178Z,5.00
2018-01-25T12:55:55.893Z,5.00
2018-01-25T12:56:56.607Z,8.00
2018-01-25T12:57:57.321Z,8.00
2018-01-25T12:58:58.036Z,6.00
2018-01-25T12:59:58.751Z,7.00
2018-01-25T13:00:59.464Z,6.00
2018-01-25T13:02:00.181Z,6.00
2018-01-25T13:03:00.891Z,6.00
2018-01-25T13:04:01.602Z,6.00
2018-01-25T13:05:02.315Z,7.00
2018-01-25T13:06:03.028Z,8.00
2018-01-25T13:07:03.740Z,7.00
2018-01-25T13:08:04.451Z,6.00
2018-01-25T13:09:05.163Z,6.00
2018-01-25T13:10:05.877Z,6.00
2018-01-25T13:11:06.590Z,5.00
2018-01-25T13:12:07.304Z,6.00
2018-01-25T13:13:08.017Z,6.00
2018-01-25T13:14:08.730Z,6.00
2018-01-25T13:15:09.442Z,5.00
2018-01-25T13:16:10.159Z,7.00
2018-01-25T13:17:10.872Z,7.00
2018-01-25T13:18:11.600Z,7.00
2018-01-25T13:19:12.315Z,7.00
2018-01-25T13:20:13.030Z,6.00